createdAt,value
2023-05-20T00:00:05.340Z,6.23
2023-05-20T00:02:33.733Z,5.67
2023-05-20T00:05:01.849Z,9.57
2023-05-20T00:07:29.651Z,5.93
2023-05-20T00:09:57.825Z,5.53
2023-05-20T00:12:25.577Z,5.30
2023-05-20T00:14:55.224Z,6.83
2023-05-20T00:17:24.013Z,5.87
2023-05-20T00:19:51.931Z,5.77
2023-05-20T00:22:20.114Z,5.10
2023-05-20T00:24:51.382Z,5.27
2023-05-20T00:27:19.413Z,5.97
2023-05-20T00:29:47.419Z,6.93
2023-05-20T00:32:15.498Z,4.93
2023-05-20T00:34:44.546Z,7.23
2023-05-20T00:37:12.481Z,5.27
2023-05-20T00:39:40.012Z,5.10
2023-05-20T00:42:08.175Z,6.63
2023-05-20T00:44:35.944Z,5.70
2023-05-20T00:47:04.352Z,6.53
2023-05-20T00:49:32.464Z,6.97
2023-05-20T00:52:00.839Z,8.07
2023-05-20T00:54:28.834Z,5.80
2023-05-20T00:56:56.256Z,5.03
2023-05-20T00:59:23.952Z,6.33
2023-05-20T01:01:52.150Z,6.33
2023-05-20T01:04:20.035Z,5.80
2023-05-20T01:06:47.983Z,5.53
2023-05-20T01:09:15.650Z,6.20
2023-05-20T01:11:48.486Z,6.37
2023-05-20T01:14:16.248Z,6.60
2023-05-20T01:16:43.667Z,7.30
2023-05-20T01:19:22.088Z,6.00
2023-05-20T01:21:50.193Z,6.33
2023-05-20T01:24:18.808Z,7.77
2023-05-20T01:26:48.501Z,7.90
2023-05-20T01:29:18.715Z,6.80
2023-05-20T01:31:46.563Z,7.77
2023-05-20T01:34:14.611Z,13.47
2023-05-20T01:36:42.533Z,6.23
2023-05-20T01:39:10.391Z,5.87
2023-05-20T01:41:38.365Z,8.00
2023-05-20T01:44:06.069Z,6.30
2023-05-20T01:46:34.667Z,6.43
2023-05-20T01:49:02.665Z,8.47
2023-05-20T01:51:31.256Z,5.47
2023-05-20T01:53:59.125Z,7.13
2023-05-20T01:56:26.755Z,6.87
2023-05-20T01:58:54.967Z,6.67
2023-05-20T02:01:22.782Z,7.83
2023-05-20T02:03:50.698Z,6.83
2023-05-20T02:06:18.795Z,5.93
2023-05-20T02:08:47.178Z,6.70
2023-05-20T02:11:15.250Z,7.90
2023-05-20T02:13:43.596Z,6.17
2023-05-20T02:16:11.598Z,6.67
2023-05-20T02:18:39.884Z,10.67
2023-05-20T02:21:11.047Z,6.37
2023-05-20T02:23:39.030Z,7.50
2023-05-20T02:26:07.110Z,8.40
2023-05-20T02:28:34.682Z,6.07
2023-05-20T02:31:02.200Z,6.47
2023-05-20T02:33:30.055Z,5.37
2023-05-20T02:35:57.806Z,6.67
2023-05-20T02:38:25.662Z,8.23
2023-05-20T02:40:53.640Z,5.63
2023-05-20T02:43:21.575Z,6.63
2023-05-20T02:45:49.353Z,6.60
2023-05-20T02:48:17.896Z,5.50
2023-05-20T02:50:46.655Z,8.50
2023-05-20T02:53:14.360Z,6.37
2023-05-20T02:55:41.571Z,7.00
2023-05-20T02:58:09.515Z,8.43
2023-05-20T03:00:41.080Z,6.47
2023-05-20T03:03:10.305Z,6.57
2023-05-20T03:05:38.717Z,6.90
2023-05-20T03:08:10.527Z,6.07
2023-05-20T03:10:38.966Z,6.47
2023-05-20T03:13:08.858Z,7.70
2023-05-20T03:15:36.924Z,7.07
2023-05-20T03:18:05.277Z,6.70
2023-05-20T03:20:33.448Z,8.27
2023-05-20T03:23:02.156Z,6.13
2023-05-20T03:25:29.944Z,8.77
2023-05-20T03:27:58.447Z,8.57
2023-05-20T03:30:26.541Z,6.93
2023-05-20T03:32:55.793Z,5.67
2023-05-20T03:35:23.997Z,6.40
2023-05-20T03:37:53.297Z,5.17
2023-05-20T03:43:03.751Z,8.63
2023-05-20T03:45:34.063Z,4.77
2023-05-20T03:48:03.665Z,9.27
2023-05-20T03:53:20.943Z,5.90
2023-05-20T03:55:49.555Z,5.13
2023-05-20T03:58:17.539Z,5.17
2023-05-20T04:00:46.392Z,5.50
2023-05-20T04:03:13.860Z,5.47
2023-05-20T04:05:45.853Z,5.87
2023-05-20T04:10:49.952Z,5.43
2023-05-20T04:13:20.666Z,7.30
2023-05-20T04:15:49.697Z,9.03
2023-05-20T04:18:18.053Z,7.97
2023-05-20T04:20:46.617Z,5.67
2023-05-20T04:23:15.068Z,8.50
2023-05-20T04:25:44.820Z,8.03
2023-05-20T04:28:14.110Z,7.20
2023-05-20T04:30:42.486Z,6.07
2023-05-20T04:33:11.349Z,10.47
2023-05-20T04:35:41.766Z,5.80
2023-05-20T04:38:09.381Z,5.30
2023-05-20T04:40:37.290Z,5.87
2023-05-20T04:43:04.956Z,5.07
2023-05-20T04:45:34.268Z,4.47
2023-05-20T04:48:02.543Z,5.57
2023-05-20T04:50:30.574Z,5.47
2023-05-20T04:52:59.056Z,3.87
2023-05-20T04:55:27.561Z,4.47
2023-05-20T04:58:01.509Z,5.43
2023-05-20T05:00:29.464Z,4.50
2023-05-20T05:02:57.083Z,5.33
2023-05-20T05:05:24.980Z,4.83
2023-05-20T05:07:52.888Z,4.73
2023-05-20T05:10:21.944Z,6.33
2023-05-20T05:12:49.669Z,4.07
2023-05-20T05:15:18.122Z,4.57
2023-05-20T05:17:45.933Z,3.90
2023-05-20T05:20:13.772Z,4.67
2023-05-20T05:22:41.664Z,7.43
2023-05-20T05:25:12.397Z,5.30
2023-05-20T05:27:39.282Z,4.77
2023-05-20T05:30:10.362Z,5.83
2023-05-20T05:32:38.825Z,3.67
2023-05-20T05:35:08.503Z,4.37
2023-05-20T05:37:36.638Z,5.57
2023-05-20T05:40:05.620Z,3.10
2023-05-20T05:42:36.869Z,4.83
2023-05-20T05:45:06.845Z,3.80
2023-05-20T05:47:34.844Z,4.37
2023-05-20T05:50:02.822Z,3.07
2023-05-20T05:52:30.351Z,3.70
2023-05-20T05:54:58.678Z,3.87
2023-05-20T05:57:26.703Z,5.77
2023-05-20T05:59:57.260Z,5.20
2023-05-20T06:02:25.359Z,4.20
2023-05-20T06:04:53.651Z,4.43
2023-05-20T06:07:21.565Z,4.00
2023-05-20T06:09:49.159Z,4.53
2023-05-20T06:12:17.218Z,6.00
2023-05-20T06:14:44.846Z,4.50
2023-05-20T06:17:12.341Z,6.63
2023-05-20T06:19:40.284Z,5.07
2023-05-20T06:22:08.240Z,6.77
2023-05-20T06:24:35.750Z,5.20
2023-05-20T06:27:03.736Z,5.17
2023-05-20T06:29:32.215Z,4.60
2023-05-20T06:32:00.480Z,6.47
2023-05-20T06:34:28.688Z,6.80
2023-05-20T06:37:00.301Z,4.80
2023-05-20T06:39:28.664Z,8.27
2023-05-20T06:41:56.622Z,7.17
2023-05-20T06:44:24.226Z,7.60
2023-05-20T06:46:51.911Z,8.07
2023-05-20T06:49:19.674Z,5.90
2023-05-20T06:51:47.693Z,8.63
2023-05-20T06:54:15.160Z,6.63
2023-05-20T06:56:43.029Z,7.50
2023-05-20T06:59:10.683Z,7.23
2023-05-20T07:01:38.618Z,9.50
2023-05-20T07:04:26.685Z,4.07
2023-05-20T07:06:54.257Z,5.70
2023-05-20T07:09:22.184Z,5.53
2023-05-20T07:11:50.434Z,5.20
2023-05-20T07:14:17.895Z,4.27
2023-05-20T07:16:45.429Z,6.93
2023-05-20T07:19:13.488Z,3.83
2023-05-20T07:21:42.025Z,6.40
2023-05-20T07:24:09.614Z,4.60
2023-05-20T07:26:38.012Z,5.03
2023-05-20T07:29:05.983Z,5.53
2023-05-20T07:31:33.924Z,6.70
2023-05-20T07:34:01.564Z,4.87
2023-05-20T07:36:29.955Z,6.53
2023-05-20T07:39:03.522Z,4.43
2023-05-20T07:41:40.574Z,4.97
2023-05-20T07:44:19.515Z,5.25
2023-05-20T07:50:11.448Z,7.30
2023-05-20T07:55:10.244Z,6.77
2023-05-20T07:57:38.257Z,7.60
2023-05-20T08:00:08.363Z,6.13
2023-05-20T08:02:36.708Z,5.93
2023-05-20T08:05:06.255Z,4.60
2023-05-20T08:07:34.119Z,5.87
2023-05-20T08:10:07.118Z,7.07
2023-05-20T08:12:34.600Z,7.00
2023-05-20T08:15:02.433Z,5.67
2023-05-20T08:17:30.486Z,6.57
2023-05-20T08:20:00.958Z,6.30
2023-05-20T08:22:33.496Z,7.07
2023-05-20T08:25:00.968Z,5.63
2023-05-20T08:27:28.880Z,6.53
2023-05-20T08:29:57.274Z,5.03
2023-05-20T08:32:34.081Z,7.00
2023-05-20T08:35:02.274Z,5.23
2023-05-20T08:37:30.144Z,5.77
2023-05-20T08:39:58.312Z,9.33
2023-05-20T08:42:26.965Z,7.77
2023-05-20T08:44:55.130Z,8.40
2023-05-20T08:47:22.776Z,7.27
2023-05-20T08:49:50.749Z,7.57
2023-05-20T08:52:30.598Z,6.00
2023-05-20T08:54:58.116Z,6.67
2023-05-20T08:57:26.050Z,5.30
2023-05-20T08:59:54.399Z,7.33
2023-05-20T09:02:22.688Z,8.00
2023-05-20T09:04:51.404Z,7.87
2023-05-20T09:07:29.159Z,8.33
2023-05-20T09:09:57.231Z,11.83
2023-05-20T09:12:25.109Z,6.37
2023-05-20T09:14:53.082Z,7.10
2023-05-20T09:17:40.090Z,7.70
2023-05-20T09:20:12.341Z,8.32
2023-05-20T09:22:39.703Z,9.27
2023-05-20T09:25:11.564Z,10.23
2023-05-20T09:27:40.816Z,8.50
2023-05-20T09:30:12.681Z,8.53
2023-05-20T09:32:40.341Z,8.87
2023-05-20T09:35:10.161Z,9.70
2023-05-20T09:37:38.194Z,7.57
2023-05-20T09:40:10.092Z,6.37
2023-05-20T09:42:48.074Z,7.93
2023-05-20T09:45:17.346Z,7.83
2023-05-20T09:47:45.057Z,12.10
2023-05-20T09:50:13.092Z,7.57
2023-05-20T09:52:40.631Z,8.03
2023-05-20T09:55:10.617Z,9.50
2023-05-20T09:57:38.746Z,7.57
2023-05-20T10:00:06.392Z,13.93
2023-05-20T10:02:34.428Z,10.10
2023-05-20T10:05:04.605Z,9.53
2023-05-20T10:08:05.024Z,9.33
2023-05-20T10:10:55.967Z,9.90
2023-05-20T10:13:42.553Z,7.93
2023-05-20T10:16:33.755Z,10.45
2023-05-20T10:19:06.197Z,10.53
2023-05-20T10:22:14.868Z,13.33
2023-05-20T10:25:01.556Z,10.90
2023-05-20T10:28:01.091Z,10.82
2023-05-20T10:30:36.406Z,9.53
2023-05-20T10:33:05.863Z,11.73
2023-05-20T10:35:33.955Z,12.47
2023-05-20T10:38:12.433Z,11.80
2023-05-20T10:40:43.248Z,14.10
2023-05-20T10:43:15.231Z,11.57
2023-05-20T10:45:53.541Z,10.47
2023-05-20T10:48:51.345Z,10.40
2023-05-20T10:51:19.426Z,9.83
2023-05-20T10:53:46.692Z,9.87
2023-05-20T10:56:40.616Z,9.53
2023-05-20T10:59:25.244Z,8.63
2023-05-20T11:01:53.338Z,10.87
2023-05-20T11:04:20.460Z,9.00
2023-05-20T11:06:55.887Z,9.75
2023-05-20T11:09:23.439Z,9.00
2023-05-20T11:11:51.454Z,8.33
2023-05-20T11:14:20.602Z,9.33
2023-05-20T11:16:56.116Z,10.03
2023-05-20T11:19:23.850Z,11.37
2023-05-20T11:21:51.602Z,10.33
2023-05-20T11:24:28.519Z,11.73
2023-05-20T11:26:57.629Z,10.13
2023-05-20T11:29:26.382Z,8.87
2023-05-20T11:31:54.356Z,11.13
2023-05-20T11:34:24.996Z,11.70
2023-05-20T11:37:11.868Z,13.50
2023-05-20T11:39:39.805Z,9.77
2023-05-20T11:42:08.007Z,14.43
2023-05-20T11:44:35.577Z,10.67
2023-05-20T11:47:03.410Z,10.17
2023-05-20T11:49:31.312Z,14.53
2023-05-20T11:51:58.946Z,10.43
2023-05-20T11:54:26.753Z,10.17
2023-05-20T11:56:57.904Z,12.80
2023-05-20T11:59:25.816Z,10.93
2023-05-20T12:02:03.250Z,13.70
2023-05-20T12:04:31.302Z,11.03
2023-05-20T12:06:59.340Z,11.77
2023-05-20T12:09:26.989Z,12.63
2023-05-20T12:11:56.897Z,10.03
2023-05-20T12:14:24.863Z,10.53
2023-05-20T12:16:56.384Z,11.43
2023-05-20T12:19:24.958Z,11.30
2023-05-20T12:21:53.753Z,10.32
2023-05-20T12:24:21.428Z,11.53
2023-05-20T12:26:48.500Z,9.00
2023-05-20T12:29:16.096Z,10.77
2023-05-20T12:31:43.967Z,9.80
2023-05-20T12:34:11.957Z,9.77
2023-05-20T12:36:39.937Z,9.73
2023-05-20T12:39:07.615Z,14.93
2023-05-20T12:41:35.580Z,13.83
2023-05-20T12:44:03.268Z,11.50
2023-05-20T12:46:31.370Z,10.23
2023-05-20T12:48:58.952Z,8.67
2023-05-20T12:51:26.981Z,13.23
2023-05-20T12:53:58.828Z,9.13
2023-05-20T12:56:26.495Z,11.03
2023-05-20T12:58:54.345Z,10.23
2023-05-20T13:01:22.301Z,9.97
2023-05-20T13:03:53.519Z,10.70
2023-05-20T13:06:20.720Z,8.57
2023-05-20T13:08:48.860Z,9.57
2023-05-20T13:11:16.534Z,9.88
2023-05-20T13:13:44.610Z,10.23
2023-05-20T13:16:12.648Z,10.73
2023-05-20T13:18:40.532Z,10.73
2023-05-20T13:21:08.830Z,9.30
2023-05-20T13:23:37.207Z,11.13
2023-05-20T13:26:05.413Z,8.87
2023-05-20T13:28:33.415Z,10.23
2023-05-20T13:31:02.781Z,9.90
2023-05-20T13:33:30.760Z,9.53
2023-05-20T13:35:58.725Z,10.27
2023-05-20T13:38:26.279Z,10.73
2023-05-20T13:40:54.205Z,9.27
2023-05-20T13:43:21.828Z,9.87
2023-05-20T13:45:49.860Z,8.10
2023-05-20T13:48:17.642Z,10.90
2023-05-20T13:50:45.736Z,11.70
2023-05-20T13:53:13.952Z,10.20
2023-05-20T13:55:41.602Z,9.93
2023-05-20T13:58:12.542Z,11.47
2023-05-20T14:00:40.823Z,10.20
2023-05-20T14:03:10.462Z,10.43
2023-05-20T14:05:38.865Z,9.30
2023-05-20T14:08:06.720Z,12.90
2023-05-20T14:10:34.794Z,10.93
2023-05-20T14:13:02.549Z,9.13
2023-05-20T14:15:32.920Z,8.53
2023-05-20T14:18:00.986Z,10.47
2023-05-20T14:20:28.882Z,10.07
2023-05-20T14:22:57.035Z,9.47
2023-05-20T14:25:25.313Z,10.73
2023-05-20T14:27:53.177Z,9.67
2023-05-20T14:30:21.033Z,8.68
2023-05-20T14:32:48.740Z,8.63
2023-05-20T14:35:18.707Z,9.63
2023-05-20T14:37:46.481Z,11.20
2023-05-20T14:40:15.394Z,8.93
2023-05-20T14:42:43.187Z,10.93
2023-05-20T14:45:12.515Z,9.82
2023-05-20T14:47:40.306Z,11.50
2023-05-20T14:50:09.688Z,10.77
2023-05-20T14:52:37.770Z,9.83
2023-05-20T14:55:08.676Z,9.77
2023-05-20T14:57:36.538Z,11.27
2023-05-20T15:00:05.328Z,10.77
2023-05-20T15:02:33.612Z,12.03
2023-05-20T15:05:01.548Z,10.40
2023-05-20T15:07:37.063Z,12.83
2023-05-20T15:10:06.638Z,10.07
2023-05-20T15:12:34.739Z,11.13
2023-05-20T15:15:02.344Z,10.40
2023-05-20T15:17:30.893Z,11.70
2023-05-20T15:20:09.947Z,10.17
2023-05-20T15:22:38.248Z,10.83
2023-05-20T15:25:06.835Z,10.57
2023-05-20T15:27:34.825Z,13.93
2023-05-20T15:30:02.979Z,11.77
2023-05-20T15:32:30.925Z,12.53
2023-05-20T15:35:18.476Z,9.57
2023-05-20T15:37:45.968Z,11.17
2023-05-20T15:40:14.413Z,10.93
2023-05-20T15:42:42.313Z,11.37
2023-05-20T15:45:13.047Z,10.97
2023-05-20T15:47:40.851Z,13.30
2023-05-20T15:50:12.728Z,12.10
2023-05-20T15:52:40.562Z,13.10
2023-05-20T15:55:11.014Z,12.47
2023-05-20T15:57:38.571Z,12.83
2023-05-20T16:00:12.448Z,12.30
2023-05-20T16:02:41.453Z,11.93
2023-05-20T16:05:10.656Z,13.93
2023-05-20T16:07:37.964Z,13.00
2023-05-20T16:10:08.430Z,12.67
2023-05-20T16:12:36.693Z,10.20
2023-05-20T16:15:05.660Z,10.33
2023-05-20T16:17:34.013Z,9.60
2023-05-20T16:20:02.024Z,11.13
2023-05-20T16:22:29.925Z,11.20
2023-05-20T16:24:58.165Z,13.97
2023-05-20T16:27:25.602Z,11.57
2023-05-20T16:29:53.877Z,13.53
2023-05-20T16:32:22.031Z,14.23
2023-05-20T16:34:50.496Z,12.83
2023-05-20T16:37:18.682Z,12.23
2023-05-20T16:39:46.431Z,11.80
2023-05-20T16:42:14.490Z,11.67
2023-05-20T16:44:42.174Z,13.33
2023-05-20T16:47:10.164Z,13.33
2023-05-20T16:49:38.024Z,13.80
2023-05-20T16:52:08.751Z,13.27
2023-05-20T16:54:36.458Z,13.17
2023-05-20T16:57:08.140Z,12.43
2023-05-20T16:59:36.170Z,15.70
2023-05-20T17:02:03.813Z,15.00
2023-05-20T17:04:31.508Z,14.30
2023-05-20T17:07:01.773Z,13.80
2023-05-20T17:09:30.048Z,13.90
2023-05-20T17:11:58.304Z,12.50
2023-05-20T17:14:26.077Z,13.73
2023-05-20T17:16:53.971Z,16.13
2023-05-20T17:19:22.058Z,16.27
2023-05-20T17:21:49.789Z,13.93
2023-05-20T17:24:17.364Z,14.53
2023-05-20T17:26:44.883Z,15.23
2023-05-20T17:29:13.290Z,15.07
2023-05-20T17:31:40.906Z,13.47
2023-05-20T17:34:08.504Z,13.63
2023-05-20T17:36:36.474Z,14.57
2023-05-20T17:39:04.648Z,13.30
2023-05-20T17:41:32.279Z,14.23
2023-05-20T17:44:01.554Z,14.80
2023-05-20T17:46:29.857Z,15.90
2023-05-20T17:48:57.509Z,15.60
2023-05-20T17:51:25.500Z,16.47
2023-05-20T17:53:53.533Z,14.70
2023-05-20T17:56:23.584Z,17.33
2023-05-20T17:58:51.544Z,19.43
2023-05-20T18:01:19.559Z,22.20
2023-05-20T18:03:47.785Z,15.07
2023-05-20T18:06:15.404Z,20.80
2023-05-20T18:08:43.346Z,14.37
2023-05-20T18:11:11.068Z,23.40
2023-05-20T18:13:38.974Z,31.77
2023-05-20T18:16:08.059Z,21.67
2023-05-20T18:18:35.904Z,14.30
2023-05-20T18:21:06.790Z,16.60
2023-05-20T18:23:49.280Z,18.80
2023-05-20T18:26:17.329Z,18.13
2023-05-20T18:28:45.023Z,16.73
2023-05-20T18:31:13.220Z,15.63
2023-05-20T18:33:41.042Z,14.83
2023-05-20T18:36:08.541Z,15.83
2023-05-20T18:38:36.549Z,15.53
2023-05-20T18:41:05.583Z,16.20
2023-05-20T18:43:49.036Z,13.57
2023-05-20T18:46:16.783Z,15.13
2023-05-20T18:48:44.943Z,14.37
2023-05-20T18:51:12.887Z,14.47
2023-05-20T18:53:40.859Z,16.63
2023-05-20T18:56:09.196Z,14.83
2023-05-20T18:58:37.304Z,16.60
2023-05-20T19:01:05.741Z,16.93
2023-05-20T19:03:33.744Z,16.90
2023-05-20T19:06:01.355Z,16.57
2023-05-20T19:08:29.626Z,16.77
2023-05-20T19:10:57.166Z,17.67
2023-05-20T19:13:25.096Z,18.37
2023-05-20T19:15:52.261Z,19.07
2023-05-20T19:18:21.519Z,16.23
2023-05-20T19:20:49.662Z,14.67
2023-05-20T19:23:17.718Z,17.03
2023-05-20T19:25:45.496Z,16.57
2023-05-20T19:28:14.210Z,17.80
2023-05-20T19:30:41.835Z,20.07
2023-05-20T19:33:10.302Z,17.27
2023-05-20T19:35:38.616Z,16.17
2023-05-20T19:38:07.238Z,18.07
2023-05-20T19:40:35.613Z,16.30
2023-05-20T19:43:03.215Z,17.87
2023-05-20T19:45:31.192Z,17.23
2023-05-20T19:47:59.020Z,17.90
2023-05-20T19:50:27.390Z,16.90
2023-05-20T19:52:55.684Z,19.53
2023-05-20T19:55:23.638Z,16.50
2023-05-20T19:57:53.942Z,17.53
2023-05-20T20:00:31.447Z,18.07
2023-05-20T20:03:00.186Z,17.03
2023-05-20T20:05:28.128Z,19.53
2023-05-20T20:07:56.270Z,20.80
2023-05-20T20:10:24.869Z,20.43
2023-05-20T20:12:52.874Z,19.83
2023-05-20T20:15:20.726Z,20.20
2023-05-20T20:17:52.546Z,19.00
2023-05-20T20:20:20.676Z,19.20
2023-05-20T20:22:48.622Z,19.43
2023-05-20T20:25:17.609Z,21.93
2023-05-20T20:27:45.885Z,19.97
2023-05-20T20:30:15.213Z,19.73
2023-05-20T20:32:43.297Z,21.07
2023-05-20T20:35:11.536Z,19.27
2023-05-20T20:37:39.491Z,20.23
2023-05-20T20:40:13.280Z,20.20
2023-05-20T20:42:45.314Z,19.20
2023-05-20T20:45:13.464Z,19.50
2023-05-20T20:47:41.747Z,18.27
2023-05-20T20:50:11.634Z,20.33
2023-05-20T20:52:42.968Z,21.37
2023-05-20T20:55:12.510Z,17.93
2023-05-20T20:57:42.002Z,18.30
2023-05-20T21:00:20.684Z,19.17
2023-05-20T21:02:48.351Z,17.53
2023-05-20T21:05:16.973Z,20.37
2023-05-20T21:07:49.307Z,17.50
2023-05-20T21:10:20.794Z,19.37
2023-05-20T21:12:48.453Z,18.57
2023-05-20T21:15:16.595Z,16.87
2023-05-20T21:17:44.640Z,18.03
2023-05-20T21:20:14.248Z,19.93
2023-05-20T21:22:41.917Z,19.27
2023-05-20T21:25:10.541Z,18.27
2023-05-20T21:27:38.027Z,21.40
2023-05-20T21:30:08.461Z,22.00
2023-05-20T21:32:36.011Z,22.07
2023-05-20T21:35:06.419Z,20.83
2023-05-20T21:37:34.021Z,22.93
2023-05-20T21:40:02.010Z,20.87
2023-05-20T21:42:29.964Z,19.67
2023-05-20T21:44:57.933Z,18.77
2023-05-20T21:47:25.513Z,18.77
2023-05-20T21:49:53.483Z,22.53
2023-05-20T21:52:21.070Z,22.03
2023-05-20T21:54:48.910Z,20.90
2023-05-20T21:57:16.764Z,20.83
2023-05-20T21:59:44.779Z,21.50
2023-05-20T22:02:12.672Z,21.47
2023-05-20T22:04:40.820Z,23.53
2023-05-20T22:07:09.177Z,22.30
2023-05-20T22:09:35.965Z,19.77
2023-05-20T22:12:05.025Z,21.03
2023-05-20T22:14:33.066Z,21.10
2023-05-20T22:17:00.979Z,23.10
2023-05-20T22:19:28.538Z,23.53
2023-05-20T22:21:56.166Z,20.67
2023-05-20T22:24:24.137Z,23.40
2023-05-20T22:26:52.099Z,20.37
2023-05-20T22:29:20.361Z,27.13
2023-05-20T22:31:48.262Z,22.83
2023-05-20T22:34:16.265Z,22.23
2023-05-20T22:36:45.344Z,21.30
2023-05-20T22:39:13.457Z,24.40
2023-05-20T22:41:41.021Z,22.60
2023-05-20T22:44:08.574Z,23.67
2023-05-20T22:46:36.651Z,23.93
2023-05-20T22:49:04.530Z,21.70
2023-05-20T22:51:34.473Z,22.27
2023-05-20T22:54:01.922Z,22.10
2023-05-20T22:56:29.750Z,23.03
2023-05-20T22:58:57.660Z,21.53
2023-05-20T23:01:25.787Z,21.73
2023-05-20T23:03:53.868Z,21.50
2023-05-20T23:06:22.845Z,19.20
2023-05-20T23:08:50.108Z,22.27
2023-05-20T23:11:18.084Z,21.63
2023-05-20T23:13:46.354Z,25.53
2023-05-20T23:16:16.751Z,22.33
2023-05-20T23:18:44.782Z,21.73
2023-05-20T23:21:12.324Z,20.83
2023-05-20T23:23:40.128Z,21.53
2023-05-20T23:26:07.894Z,22.20
2023-05-20T23:28:35.949Z,18.13
2023-05-20T23:31:03.689Z,20.57
2023-05-20T23:33:31.275Z,20.67
2023-05-20T23:35:59.299Z,18.97
2023-05-20T23:38:27.208Z,19.40
2023-05-20T23:40:55.445Z,19.27
2023-05-20T23:43:24.872Z,19.63
2023-05-20T23:45:52.945Z,19.93
2023-05-20T23:48:20.787Z,17.87
2023-05-20T23:50:48.990Z,18.87
2023-05-20T23:53:17.111Z,16.23
2023-05-20T23:55:45.358Z,25.60
2023-05-20T23:58:12.932Z,18.33
